createdAt,value
2023-05-21T00:02:44.295Z,98.45
2023-05-21T00:05:47.961Z,99.84
2023-05-21T00:08:50.985Z,100.00
2023-05-21T00:11:53.592Z,100.00
2023-05-21T00:14:56.437Z,100.00
2023-05-21T00:17:58.912Z,99.71
2023-05-21T00:21:02.225Z,99.97
2023-05-21T00:24:04.953Z,99.20
2023-05-21T00:27:07.736Z,99.68
2023-05-21T00:30:11.062Z,100.00
2023-05-21T00:33:14.259Z,99.34
2023-05-21T00:36:17.558Z,99.85
2023-05-21T00:39:20.397Z,99.44
2023-05-21T00:42:27.665Z,98.84
2023-05-21T00:45:30.776Z,100.00
2023-05-21T00:48:33.670Z,98.26
2023-05-21T00:51:37.032Z,96.51
2023-05-21T00:54:39.845Z,98.96
2023-05-21T00:57:42.972Z,98.21
2023-05-21T01:00:46.352Z,98.64
2023-05-21T01:03:49.522Z,97.12
2023-05-21T01:06:53.861Z,96.04
2023-05-21T01:09:57.113Z,96.93
2023-05-21T01:13:00.234Z,97.50
2023-05-21T01:16:03.578Z,98.34
2023-05-21T01:19:07.587Z,96.51
2023-05-21T01:22:12.945Z,97.39
2023-05-21T01:25:15.498Z,96.89
2023-05-21T01:28:18.332Z,97.80
2023-05-21T01:31:27.506Z,98.40
2023-05-21T01:34:41.654Z,99.92
2023-05-21T01:38:07.423Z,99.24
2023-05-21T01:41:14.618Z,97.78
2023-05-21T01:44:19.601Z,97.50
2023-05-21T01:47:27.562Z,99.43
2023-05-21T01:50:30.233Z,100.00
2023-05-21T01:53:33.179Z,100.00
2023-05-21T01:56:37.179Z,100.00
2023-05-21T01:59:40.246Z,100.00
2023-05-21T02:02:43.298Z,100.00
2023-05-21T02:05:47.477Z,100.00
2023-05-21T02:08:51.555Z,100.00
2023-05-21T02:11:54.741Z,100.00
2023-05-21T02:14:57.842Z,100.00
2023-05-21T02:18:01.087Z,100.00
2023-05-21T02:21:03.541Z,100.00
2023-05-21T02:24:06.581Z,100.00
2023-05-21T02:27:10.894Z,100.00
2023-05-21T02:30:15.782Z,100.00
2023-05-21T02:33:20.095Z,100.00
2023-05-21T02:36:23.011Z,100.00
2023-05-21T02:39:27.172Z,100.00
2023-05-21T02:42:31.983Z,100.00
2023-05-21T02:45:35.002Z,100.00
2023-05-21T02:48:38.333Z,100.00
2023-05-21T02:51:41.447Z,100.00
2023-05-21T02:54:47.163Z,100.00
2023-05-21T02:57:51.206Z,100.00
2023-05-21T03:00:54.369Z,100.00
2023-05-21T03:03:57.011Z,100.00
2023-05-21T03:07:02.372Z,100.00
2023-05-21T03:10:06.980Z,100.00
2023-05-21T03:13:10.126Z,100.00
2023-05-21T03:16:13.912Z,100.00
2023-05-21T03:19:16.677Z,100.00
2023-05-21T03:22:20.366Z,100.00
2023-05-21T03:25:25.514Z,100.00
2023-05-21T03:28:29.997Z,100.00
2023-05-21T03:31:32.965Z,100.00
2023-05-21T03:34:42.406Z,100.00
2023-05-21T03:37:45.827Z,100.00
2023-05-21T03:40:49.356Z,100.00
2023-05-21T03:43:52.969Z,100.00
2023-05-21T03:46:59.318Z,100.00
2023-05-21T03:50:09.527Z,100.00
2023-05-21T03:53:12.724Z,100.00
2023-05-21T03:56:15.832Z,100.00
2023-05-21T03:59:18.411Z,100.00
2023-05-21T04:02:22.804Z,100.00
2023-05-21T04:05:25.514Z,100.00
2023-05-21T04:08:28.304Z,100.00
2023-05-21T04:11:31.572Z,100.00
2023-05-21T04:14:34.570Z,100.00
2023-05-21T04:17:36.914Z,100.00
2023-05-21T04:20:40.075Z,100.00
2023-05-21T04:23:42.792Z,100.00
2023-05-21T04:26:56.298Z,100.00
2023-05-21T04:29:58.887Z,100.00
2023-05-21T04:33:03.164Z,100.00
2023-05-21T04:36:05.910Z,100.00
2023-05-21T04:39:08.734Z,100.00
2023-05-21T04:42:11.756Z,100.00
2023-05-21T04:45:14.990Z,100.00
2023-05-21T04:48:20.700Z,100.00
2023-05-21T04:51:25.041Z,100.00
2023-05-21T04:54:27.980Z,100.00
2023-05-21T04:57:31.378Z,100.00
2023-05-21T05:00:37.911Z,97.80
2023-05-21T05:03:42.785Z,98.58
2023-05-21T05:06:45.290Z,97.93
2023-05-21T05:09:48.322Z,94.91
2023-05-21T05:12:50.877Z,95.44
2023-05-21T05:15:55.116Z,91.34
2023-05-21T05:18:57.760Z,88.89
2023-05-21T05:22:00.700Z,90.00
2023-05-21T05:25:03.278Z,89.69
2023-05-21T05:28:06.089Z,89.75
2023-05-21T05:31:09.158Z,86.02
2023-05-21T05:34:12.169Z,83.89
2023-05-21T05:37:14.725Z,82.05
2023-05-21T05:40:17.639Z,81.21
2023-05-21T05:43:20.457Z,83.81
2023-05-21T05:46:26.054Z,83.83
2023-05-21T05:49:28.564Z,78.75
2023-05-21T05:52:31.419Z,74.85
2023-05-21T05:55:34.067Z,77.18
2023-05-21T05:58:37.621Z,72.78
2023-05-21T06:01:48.454Z,68.81
2023-05-21T06:04:52.147Z,69.93
2023-05-21T06:07:54.699Z,67.62
2023-05-21T06:10:57.549Z,68.11
2023-05-21T06:14:02.054Z,64.91
2023-05-21T06:17:05.143Z,60.58
2023-05-21T06:20:09.594Z,62.20
2023-05-21T06:23:12.928Z,60.98
2023-05-21T06:26:16.869Z,58.28
2023-05-21T06:29:19.709Z,57.88
2023-05-21T06:32:23.819Z,57.18
2023-05-21T06:35:26.919Z,55.73
2023-05-21T06:38:29.714Z,53.03
2023-05-21T06:41:32.630Z,53.20
2023-05-21T06:44:40.370Z,50.82
2023-05-21T06:47:58.359Z,49.91
2023-05-21T06:51:00.870Z,48.62
2023-05-21T06:54:04.392Z,48.87
2023-05-21T06:57:07.939Z,45.50
2023-05-21T07:00:11.549Z,47.44
2023-05-21T07:03:15.424Z,45.06
2023-05-21T07:06:18.490Z,44.49
2023-05-21T07:09:21.688Z,44.12
2023-05-21T07:12:26.520Z,45.77
2023-05-21T07:15:29.178Z,43.17
2023-05-21T07:18:32.950Z,48.24
2023-05-21T07:21:35.475Z,44.33
2023-05-21T07:24:38.619Z,47.43
2023-05-21T07:27:42.370Z,44.40
2023-05-21T07:30:47.049Z,42.81
2023-05-21T07:33:54.287Z,43.37
2023-05-21T07:37:02.189Z,43.26
2023-05-21T07:40:06.627Z,41.80
2023-05-21T07:43:10.888Z,41.66
2023-05-21T07:46:15.382Z,41.34
2023-05-21T07:49:20.429Z,39.97
2023-05-21T07:52:23.922Z,38.74
2023-05-21T07:55:26.762Z,38.08
2023-05-21T08:02:10.980Z,38.67
2023-05-21T08:05:19.291Z,36.60
2023-05-21T08:08:24.537Z,39.54
2023-05-21T08:11:30.287Z,39.34
2023-05-21T08:14:33.065Z,36.03
2023-05-21T08:17:36.427Z,35.31
2023-05-21T08:20:39.280Z,36.74
2023-05-21T08:23:43.952Z,35.64
2023-05-21T08:26:47.757Z,33.02
2023-05-21T08:29:50.708Z,33.04
2023-05-21T08:32:53.543Z,35.32
2023-05-21T08:35:56.771Z,34.80
2023-05-21T08:39:07.342Z,34.55
2023-05-21T08:42:39.996Z,33.17
2023-05-21T08:45:45.774Z,34.70
2023-05-21T08:48:49.078Z,34.64
2023-05-21T08:51:52.074Z,36.52
2023-05-21T08:54:58.405Z,35.00
2023-05-21T08:58:02.016Z,35.71
2023-05-21T09:01:06.703Z,31.98
2023-05-21T09:04:21.289Z,31.21
2023-05-21T09:07:29.355Z,31.14
2023-05-21T09:11:07.038Z,30.39
2023-05-21T09:14:17.425Z,31.44
2023-05-21T09:17:38.434Z,32.54
2023-05-21T09:21:24.815Z,34.52
2023-05-21T09:24:32.103Z,29.72
2023-05-21T09:27:36.732Z,30.88
2023-05-21T09:30:53.846Z,31.18
2023-05-21T09:33:58.478Z,32.08
2023-05-21T09:37:03.743Z,33.09
2023-05-21T09:40:22.520Z,32.45
2023-05-21T09:43:26.194Z,34.53
2023-05-21T09:46:40.978Z,31.43
2023-05-21T09:49:44.781Z,32.92
2023-05-21T09:52:50.449Z,30.96
2023-05-21T09:55:54.642Z,31.90
2023-05-21T09:59:00.557Z,32.20
2023-05-21T10:02:03.228Z,32.33
2023-05-21T10:05:09.338Z,32.13
2023-05-21T10:08:12.640Z,31.47
2023-05-21T10:11:17.018Z,30.72
2023-05-21T10:14:23.982Z,29.55
2023-05-21T10:17:28.667Z,31.96
2023-05-21T10:20:31.515Z,33.15
2023-05-21T10:23:36.653Z,34.86
2023-05-21T10:26:40.508Z,34.96
2023-05-21T10:29:44.761Z,29.13
2023-05-21T10:32:48.563Z,29.47
2023-05-21T10:35:53.252Z,30.32
2023-05-21T10:38:57.277Z,29.63
2023-05-21T10:42:09.814Z,31.55
2023-05-21T10:45:32.732Z,29.57
2023-05-21T10:48:54.179Z,31.39
2023-05-21T10:52:44.263Z,31.64
2023-05-21T10:55:52.363Z,31.28
2023-05-21T10:59:22.482Z,29.87
2023-05-21T11:02:27.042Z,31.82
2023-05-21T11:06:00.379Z,32.49
2023-05-21T11:09:15.372Z,31.05
2023-05-21T11:12:18.316Z,27.68
2023-05-21T11:15:21.404Z,27.07
2023-05-21T11:18:35.767Z,28.25
2023-05-21T11:21:40.664Z,28.07
2023-05-21T11:24:43.165Z,30.45
2023-05-21T11:27:45.927Z,27.06
2023-05-21T11:31:40.620Z,29.93
2023-05-21T11:34:46.343Z,29.70
2023-05-21T11:37:50.761Z,29.78
2023-05-21T11:40:55.584Z,28.53
2023-05-21T11:44:01.719Z,30.54
2023-05-21T11:47:05.402Z,27.52
2023-05-21T11:50:13.434Z,27.19
2023-05-21T11:53:16.425Z,32.52
2023-05-21T11:56:20.744Z,31.86
2023-05-21T11:59:23.562Z,29.31
2023-05-21T12:02:31.284Z,29.45
2023-05-21T12:05:50.403Z,30.56
2023-05-21T12:08:53.155Z,29.90
2023-05-21T12:11:55.929Z,30.83
2023-05-21T12:14:59.179Z,32.10
2023-05-21T12:18:02.495Z,32.50
2023-05-21T12:21:05.281Z,29.39
2023-05-21T12:24:08.061Z,31.72
2023-05-21T12:27:13.219Z,31.88
2023-05-21T12:30:16.344Z,28.69
2023-05-21T12:33:19.759Z,28.90
2023-05-21T12:36:23.847Z,33.69
2023-05-21T12:39:26.377Z,29.48
2023-05-21T12:42:31.061Z,29.43
2023-05-21T12:45:33.796Z,32.41
2023-05-21T12:48:36.598Z,29.80
2023-05-21T12:51:40.280Z,29.43
2023-05-21T12:54:45.765Z,28.56
2023-05-21T12:57:48.323Z,27.83
2023-05-21T13:00:51.307Z,32.01
2023-05-21T13:03:53.837Z,30.91
2023-05-21T13:06:56.651Z,30.21
2023-05-21T13:10:00.887Z,30.88
2023-05-21T13:13:03.845Z,28.82
2023-05-21T13:16:08.555Z,29.57
2023-05-21T13:19:11.754Z,29.08
2023-05-21T13:22:14.413Z,29.56
2023-05-21T13:25:22.871Z,29.13
2023-05-21T13:28:25.724Z,28.46
2023-05-21T13:31:28.842Z,30.81
2023-05-21T13:34:31.429Z,29.68
2023-05-21T13:37:38.018Z,28.87
2023-05-21T13:40:40.933Z,30.17
2023-05-21T13:43:44.235Z,30.78
2023-05-21T13:46:46.942Z,31.82
2023-05-21T13:49:49.850Z,29.93
2023-05-21T13:52:52.453Z,28.77
2023-05-21T13:55:55.337Z,31.02
2023-05-21T13:58:57.968Z,29.38
2023-05-21T14:02:01.525Z,28.28
2023-05-21T14:05:04.152Z,29.68
2023-05-21T14:08:07.017Z,27.46
2023-05-21T14:11:09.390Z,30.63
2023-05-21T14:14:14.338Z,28.74
2023-05-21T14:17:16.893Z,29.39
2023-05-21T14:20:19.821Z,32.11
2023-05-21T14:23:22.338Z,28.40
2023-05-21T14:26:25.325Z,28.37
2023-05-21T14:29:27.901Z,29.13
2023-05-21T14:32:32.029Z,30.43
2023-05-21T14:35:34.809Z,29.43
2023-05-21T14:38:38.210Z,30.28
2023-05-21T14:41:41.296Z,31.57
2023-05-21T14:44:44.340Z,29.56
2023-05-21T14:47:47.975Z,28.36
2023-05-21T14:50:51.682Z,28.25
2023-05-21T14:53:54.411Z,27.49
2023-05-21T14:56:57.249Z,29.71
2023-05-21T15:00:00.078Z,28.42
2023-05-21T15:03:03.460Z,29.37
2023-05-21T15:06:06.428Z,27.83
2023-05-21T15:09:09.288Z,28.94
2023-05-21T15:12:11.742Z,31.41
2023-05-21T15:15:17.497Z,28.89
2023-05-21T15:18:20.090Z,27.77
2023-05-21T15:21:23.423Z,28.75
2023-05-21T15:24:26.512Z,27.78
2023-05-21T15:27:29.413Z,31.44
2023-05-21T15:30:32.018Z,27.79
2023-05-21T15:33:35.127Z,28.80
2023-05-21T15:36:37.653Z,29.36
2023-05-21T15:39:40.855Z,29.35
2023-05-21T15:42:43.467Z,28.94
2023-05-21T15:45:46.427Z,29.95
2023-05-21T15:48:48.974Z,31.33
2023-05-21T15:51:52.127Z,29.53
2023-05-21T15:54:55.143Z,28.90
2023-05-21T15:58:00.156Z,31.08
2023-05-21T16:01:04.134Z,29.60
2023-05-21T16:04:07.172Z,29.88
2023-05-21T16:07:09.799Z,28.88
2023-05-21T16:10:12.707Z,30.34
2023-05-21T16:13:15.118Z,31.04
2023-05-21T16:16:17.990Z,32.31
2023-05-21T16:19:21.381Z,29.66
2023-05-21T16:22:25.001Z,28.69
2023-05-21T16:25:27.604Z,31.29
2023-05-21T16:28:30.501Z,30.38
2023-05-21T16:31:34.326Z,30.98
2023-05-21T16:34:37.234Z,31.37
2023-05-21T16:37:41.916Z,32.43
2023-05-21T16:40:45.527Z,30.66
2023-05-21T16:43:48.497Z,31.68
2023-05-21T16:46:52.934Z,30.41
2023-05-21T16:49:56.286Z,32.67
2023-05-21T16:53:02.585Z,34.39
2023-05-21T16:56:05.152Z,34.25
2023-05-21T16:59:08.230Z,34.42
2023-05-21T17:02:13.757Z,30.65
2023-05-21T17:05:16.825Z,33.44
2023-05-21T17:08:19.631Z,31.17
2023-05-21T17:11:23.534Z,31.28
2023-05-21T17:14:34.495Z,32.54
2023-05-21T17:17:38.172Z,36.39
2023-05-21T17:20:40.764Z,36.36
2023-05-21T17:23:44.106Z,36.60
2023-05-21T17:26:46.606Z,33.92
2023-05-21T17:29:49.338Z,35.90
2023-05-21T17:32:51.893Z,35.55
2023-05-21T17:35:57.195Z,38.23
2023-05-21T17:38:59.771Z,40.15
2023-05-21T17:42:02.650Z,41.50
2023-05-21T17:45:05.441Z,43.77
2023-05-21T17:48:08.237Z,43.85
2023-05-21T17:51:11.684Z,44.82
2023-05-21T17:54:15.317Z,45.51
2023-05-21T17:57:19.979Z,45.52
2023-05-21T18:00:22.800Z,44.98
2023-05-21T18:03:25.270Z,45.31
2023-05-21T18:06:29.138Z,43.77
2023-05-21T18:09:32.667Z,46.43
2023-05-21T18:12:36.057Z,46.27
2023-05-21T18:15:38.843Z,46.67
2023-05-21T18:18:42.843Z,46.66
2023-05-21T18:21:46.110Z,44.00
2023-05-21T18:24:48.879Z,46.57
2023-05-21T18:27:52.389Z,46.98
2023-05-21T18:30:57.301Z,47.21
2023-05-21T18:33:59.706Z,45.67
2023-05-21T18:37:02.502Z,46.04
2023-05-21T18:40:08.051Z,49.05
2023-05-21T18:43:11.114Z,47.40
2023-05-21T18:46:13.589Z,48.07
2023-05-21T18:49:16.696Z,50.45
2023-05-21T18:52:19.395Z,50.29
2023-05-21T18:55:22.668Z,48.83
2023-05-21T18:58:25.184Z,51.11
2023-05-21T19:01:30.517Z,49.75
2023-05-21T19:04:33.232Z,51.87
2023-05-21T19:07:36.668Z,50.53
2023-05-21T19:10:39.975Z,51.05
2023-05-21T19:13:43.892Z,55.92
2023-05-21T19:16:46.813Z,54.94
2023-05-21T19:19:56.154Z,56.83
2023-05-21T19:22:58.905Z,57.13
2023-05-21T19:26:01.871Z,59.07
2023-05-21T19:29:04.606Z,57.78
2023-05-21T19:32:07.620Z,59.62
2023-05-21T19:35:11.361Z,59.27
2023-05-21T19:38:15.865Z,60.23
2023-05-21T19:41:18.967Z,59.95
2023-05-21T19:44:21.680Z,56.29
2023-05-21T19:47:24.320Z,55.84
2023-05-21T19:50:28.940Z,58.55
2023-05-21T19:53:31.605Z,60.35
2023-05-21T19:56:34.460Z,60.90
2023-05-21T19:59:37.127Z,59.16
2023-05-21T20:02:41.342Z,60.58
2023-05-21T20:05:44.225Z,62.02
2023-05-21T20:08:47.245Z,61.62
2023-05-21T20:11:49.728Z,63.60
2023-05-21T20:14:54.379Z,63.97
2023-05-21T20:17:59.365Z,64.01
2023-05-21T20:21:06.273Z,62.71
2023-05-21T20:24:09.001Z,61.25
2023-05-21T20:27:15.077Z,62.26
2023-05-21T20:30:17.545Z,64.81
2023-05-21T20:33:25.385Z,62.35
2023-05-21T20:36:30.663Z,63.82
2023-05-21T20:39:33.674Z,66.23
2023-05-21T20:42:36.766Z,66.27
2023-05-21T20:45:41.453Z,67.46
2023-05-21T20:48:44.107Z,69.04
2023-05-21T20:51:47.245Z,68.61
2023-05-21T20:54:49.850Z,68.46
2023-05-21T20:57:52.868Z,66.83
2023-05-21T21:00:55.436Z,67.66
2023-05-21T21:03:58.800Z,67.89
2023-05-21T21:07:02.089Z,68.68
2023-05-21T21:10:06.179Z,70.62
2023-05-21T21:13:08.799Z,69.76
2023-05-21T21:16:11.708Z,69.17
2023-05-21T21:19:14.240Z,70.21
2023-05-21T21:22:18.579Z,70.98
2023-05-21T21:25:21.261Z,71.56
2023-05-21T21:28:24.164Z,72.96
2023-05-21T21:31:26.837Z,72.55
2023-05-21T21:34:29.668Z,72.51
2023-05-21T21:37:33.778Z,74.12
2023-05-21T21:40:36.665Z,74.32
2023-05-21T21:43:39.493Z,75.26
2023-05-21T21:46:42.422Z,74.89
2023-05-21T21:49:44.971Z,74.59
2023-05-21T21:52:49.135Z,75.16
2023-05-21T21:55:51.860Z,76.05
2023-05-21T21:58:54.684Z,75.84
2023-05-21T22:01:57.135Z,76.13
2023-05-21T22:05:00.033Z,75.35
2023-05-21T22:08:02.753Z,75.53
2023-05-21T22:11:05.731Z,75.36
2023-05-21T22:14:08.782Z,75.88
2023-05-21T22:17:14.143Z,77.28
2023-05-21T22:20:43.606Z,76.64
2023-05-21T22:23:50.336Z,76.82
2023-05-21T22:26:52.982Z,78.08
2023-05-21T22:29:55.798Z,75.90
2023-05-21T22:32:58.242Z,76.44
2023-05-21T22:36:01.224Z,77.47
2023-05-21T22:39:03.744Z,76.52
2023-05-21T22:42:06.743Z,78.59
2023-05-21T22:45:09.957Z,77.72
2023-05-21T22:48:12.764Z,79.03
2023-05-21T22:51:15.256Z,80.71
2023-05-21T22:54:18.148Z,79.52
2023-05-21T22:57:21.389Z,79.38
2023-05-21T23:00:24.328Z,79.73
2023-05-21T23:03:27.010Z,79.19
2023-05-21T23:06:30.127Z,79.28
2023-05-21T23:09:32.612Z,81.06
2023-05-21T23:12:35.668Z,79.83
2023-05-21T23:15:39.142Z,79.52
2023-05-21T23:18:42.269Z,81.12
2023-05-21T23:21:44.739Z,81.29
2023-05-21T23:24:48.808Z,82.12
2023-05-21T23:27:51.369Z,81.41
2023-05-21T23:30:54.119Z,81.51
2023-05-21T23:33:59.325Z,82.04
2023-05-21T23:37:01.988Z,82.67
2023-05-21T23:40:05.512Z,82.01
2023-05-21T23:43:08.423Z,83.23
2023-05-21T23:46:11.395Z,83.08
2023-05-21T23:49:14.362Z,85.63
2023-05-21T23:52:18.556Z,85.33
2023-05-21T23:55:21.263Z,84.69
2023-05-21T23:58:23.621Z,83.29
